sensor_id;sensor_type;location;lat;lon;timestamp;pressure;altitude;pressure_sealevel;temperature;humidity
40650;BME280;26342;42.826;23.992;2023-10-19T00:00:36;95360.34;;;7.13;100.00
40650;BME280;26342;42.826;23.992;2023-10-19T00:03:04;95381.34;;;7.15;100.00
40650;BME280;26342;42.826;23.992;2023-10-19T00:05:32;95373.84;;;7.12;100.00
40650;BME280;26342;42.826;23.992;2023-10-19T00:08:02;95376.50;;;7.12;100.00
40650;BME280;26342;42.826;23.992;2023-10-19T00:10:44;95359.22;;;6.97;100.00
40650;BME280;26342;42.826;23.992;2023-10-19T00:13:11;95365.91;;;7.00;100.00
40650;BME280;26342;42.826;23.992;2023-10-19T00:15:40;95358.44;;;6.97;100.00
40650;BME280;26342;42.826;23.992;2023-10-19T00:18:11;95348.28;;;6.94;100.00
40650;BME280;26342;42.826;23.992;2023-10-19T00:20:44;95349.19;;;6.99;100.00
40650;BME280;26342;42.826;23.992;2023-10-19T00:23:10;95342.28;;;6.98;100.00
40650;BME280;26342;42.826;23.992;2023-10-19T00:25:38;95350.91;;;6.94;100.00
40650;BME280;26342;42.826;23.992;2023-10-19T00:28:07;95349.00;;;6.89;100.00
40650;BME280;26342;42.826;23.992;2023-10-19T00:30:32;95344.59;;;6.83;100.00
40650;BME280;26342;42.826;23.992;2023-10-19T00:33:01;95332.97;;;6.84;100.00
40650;BME280;26342;42.826;23.992;2023-10-19T00:35:33;95333.44;;;6.81;100.00
40650;BME280;26342;42.826;23.992;2023-10-19T00:38:00;95339.63;;;6.87;100.00
40650;BME280;26342;42.826;23.992;2023-10-19T00:40:50;95332.41;;;6.82;100.00
40650;BME280;26342;42.826;23.992;2023-10-19T00:43:31;95335.72;;;6.78;100.00
40650;BME280;26342;42.826;23.992;2023-10-19T00:46:01;95319.13;;;6.82;100.00
40650;BME280;26342;42.826;23.992;2023-10-19T00:48:52;95325.50;;;6.69;100.00
40650;BME280;26342;42.826;23.992;2023-10-19T00:51:20;95326.66;;;6.74;100.00
40650;BME280;26342;42.826;23.992;2023-10-19T00:54:02;95324.59;;;6.64;100.00
40650;BME280;26342;42.826;23.992;2023-10-19T00:56:43;95324.25;;;6.60;100.00
40650;BME280;26342;42.826;23.992;2023-10-19T00:59:12;95307.53;;;6.60;100.00
40650;BME280;26342;42.826;23.992;2023-10-19T01:01:40;95320.44;;;6.56;100.00
40650;BME280;26342;42.826;23.992;2023-10-19T01:04:12;95305.47;;;6.50;100.00
40650;BME280;26342;42.826;23.992;2023-10-19T01:06:46;95317.31;;;6.48;100.00
40650;BME280;26342;42.826;23.992;2023-10-19T01:09:27;95298.91;;;6.41;100.00
40650;BME280;26342;42.826;23.992;2023-10-19T01:11:53;95310.41;;;6.47;100.00
40650;BME280;26342;42.826;23.992;2023-10-19T01:14:22;95313.19;;;6.52;100.00
40650;BME280;26342;42.826;23.992;2023-10-19T01:16:53;95317.13;;;6.49;100.00
40650;BME280;26342;42.826;23.992;2023-10-19T01:19:24;95305.25;;;6.40;100.00
40650;BME280;26342;42.826;23.992;2023-10-19T01:21:52;95311.69;;;6.44;100.00
40650;BME280;26342;42.826;23.992;2023-10-19T01:24:21;95311.44;;;6.46;100.00
40650;BME280;26342;42.826;23.992;2023-10-19T01:27:06;95313.88;;;6.47;100.00
40650;BME280;26342;42.826;23.992;2023-10-19T01:29:35;95312.84;;;6.48;100.00
40650;BME280;26342;42.826;23.992;2023-10-19T01:32:01;95305.59;;;6.43;100.00
40650;BME280;26342;42.826;23.992;2023-10-19T01:34:34;95313.41;;;6.50;100.00
40650;BME280;26342;42.826;23.992;2023-10-19T01:37:00;95313.06;;;6.47;100.00
40650;BME280;26342;42.826;23.992;2023-10-19T01:39:33;95313.31;;;6.45;100.00
40650;BME280;26342;42.826;23.992;2023-10-19T01:42:02;95312.16;;;6.41;100.00
40650;BME280;26342;42.826;23.992;2023-10-19T01:44:30;95322.66;;;6.36;100.00
40650;BME280;26342;42.826;23.992;2023-10-19T01:46:55;95313.31;;;6.22;100.00
40650;BME280;26342;42.826;23.992;2023-10-19T01:49:21;95302.50;;;6.11;100.00
40650;BME280;26342;42.826;23.992;2023-10-19T01:51:53;95313.44;;;6.27;100.00
40650;BME280;26342;42.826;23.992;2023-10-19T01:54:20;95309.97;;;6.26;100.00
40650;BME280;26342;42.826;23.992;2023-10-19T01:56:52;95303.75;;;6.09;100.00
40650;BME280;26342;42.826;23.992;2023-10-19T01:59:24;95311.34;;;6.05;100.00
40650;BME280;26342;42.826;23.992;2023-10-19T02:01:53;95302.84;;;6.03;100.00
40650;BME280;26342;42.826;23.992;2023-10-19T02:04:20;95304.78;;;6.08;100.00
40650;BME280;26342;42.826;23.992;2023-10-19T02:06:47;95309.88;;;6.09;100.00
40650;BME280;26342;42.826;23.992;2023-10-19T02:09:13;95311.91;;;6.07;100.00
40650;BME280;26342;42.826;23.992;2023-10-19T02:11:51;95307.09;;;6.04;100.00
40650;BME280;26342;42.826;23.992;2023-10-19T02:14:25;95319.19;;;6.12;100.00
40650;BME280;26342;42.826;23.992;2023-10-19T02:16:52;95306.06;;;6.17;100.00
40650;BME280;26342;42.826;23.992;2023-10-19T02:19:22;95295.22;;;6.07;100.00
40650;BME280;26342;42.826;23.992;2023-10-19T02:21:48;95306.41;;;6.09;100.00
40650;BME280;26342;42.826;23.992;2023-10-19T02:24:14;95295.00;;;5.97;100.00
40650;BME280;26342;42.826;23.992;2023-10-19T02:26:42;95305.34;;;5.98;100.00
40650;BME280;26342;42.826;23.992;2023-10-19T02:29:08;95320.44;;;5.98;100.00
40650;BME280;26342;42.826;23.992;2023-10-19T02:31:38;95306.88;;;5.94;100.00
40650;BME280;26342;42.826;23.992;2023-10-19T02:34:06;95309.44;;;5.82;100.00
40650;BME280;26342;42.826;23.992;2023-10-19T02:36:33;95292.28;;;5.73;100.00
40650;BME280;26342;42.826;23.992;2023-10-19T02:39:04;95309.22;;;5.84;100.00
40650;BME280;26342;42.826;23.992;2023-10-19T02:44:09;95311.44;;;5.87;100.00
40650;BME280;26342;42.826;23.992;2023-10-19T02:46:38;95318.91;;;5.90;100.00
40650;BME280;26342;42.826;23.992;2023-10-19T02:49:05;95309.81;;;5.86;100.00
40650;BME280;26342;42.826;23.992;2023-10-19T02:51:38;95300.38;;;5.78;100.00
40650;BME280;26342;42.826;23.992;2023-10-19T02:54:06;95309.00;;;5.85;100.00
40650;BME280;26342;42.826;23.992;2023-10-19T02:56:33;95311.19;;;5.88;100.00
40650;BME280;26342;42.826;23.992;2023-10-19T02:59:01;95294.38;;;5.83;100.00
40650;BME280;26342;42.826;23.992;2023-10-19T03:01:29;95304.53;;;5.86;100.00
40650;BME280;26342;42.826;23.992;2023-10-19T03:03:58;95283.88;;;5.76;100.00
40650;BME280;26342;42.826;23.992;2023-10-19T03:06:30;95294.25;;;5.78;100.00
40650;BME280;26342;42.826;23.992;2023-10-19T03:09:00;95312.09;;;5.82;100.00
40650;BME280;26342;42.826;23.992;2023-10-19T03:11:51;95306.56;;;5.72;100.00
40650;BME280;26342;42.826;23.992;2023-10-19T03:14:21;95298.63;;;5.72;100.00
40650;BME280;26342;42.826;23.992;2023-10-19T03:16:50;95306.81;;;5.71;100.00
40650;BME280;26342;42.826;23.992;2023-10-19T03:19:15;95308.03;;;5.68;100.00
40650;BME280;26342;42.826;23.992;2023-10-19T03:21:41;95281.22;;;5.65;100.00
40650;BME280;26342;42.826;23.992;2023-10-19T03:24:11;95290.34;;;5.80;100.00
40650;BME280;26342;42.826;23.992;2023-10-19T03:26:49;95285.28;;;5.79;100.00
40650;BME280;26342;42.826;23.992;2023-10-19T03:29:15;95277.22;;;5.74;100.00
40650;BME280;26342;42.826;23.992;2023-10-19T03:31:48;95281.38;;;5.70;100.00
40650;BME280;26342;42.826;23.992;2023-10-19T03:34:13;95288.84;;;5.73;100.00
40650;BME280;26342;42.826;23.992;2023-10-19T03:36:42;95272.72;;;5.63;100.00
40650;BME280;26342;42.826;23.992;2023-10-19T03:39:08;95294.25;;;5.78;100.00
40650;BME280;26342;42.826;23.992;2023-10-19T03:41:38;95289.88;;;5.72;100.00
40650;BME280;26342;42.826;23.992;2023-10-19T03:44:06;95268.31;;;5.56;100.00
40650;BME280;26342;42.826;23.992;2023-10-19T03:46:33;95295.03;;;5.67;100.00
40650;BME280;26342;42.826;23.992;2023-10-19T03:49:03;95296.78;;;5.61;100.00
40650;BME280;26342;42.826;23.992;2023-10-19T03:51:38;95299.84;;;5.58;100.00
40650;BME280;26342;42.826;23.992;2023-10-19T03:54:26;95285.81;;;5.57;100.00
40650;BME280;26342;42.826;23.992;2023-10-19T03:56:53;95288.22;;;5.47;100.00
40650;BME280;26342;42.826;23.992;2023-10-19T03:59:20;95271.88;;;5.39;100.00
40650;BME280;26342;42.826;23.992;2023-10-19T04:01:46;95274.72;;;5.37;100.00
40650;BME280;26342;42.826;23.992;2023-10-19T04:04:12;95268.63;;;5.37;100.00
40650;BME280;26342;42.826;23.992;2023-10-19T04:06:39;95279.09;;;5.43;100.00
40650;BME280;26342;42.826;23.992;2023-10-19T04:09:05;95278.19;;;5.38;100.00
40650;BME280;26342;42.826;23.992;2023-10-19T04:11:34;95269.53;;;5.30;100.00
40650;BME280;26342;42.826;23.992;2023-10-19T04:14:16;95277.34;;;5.37;100.00
40650;BME280;26342;42.826;23.992;2023-10-19T04:16:43;95266.91;;;5.30;100.00
40650;BME280;26342;42.826;23.992;2023-10-19T04:19:13;95261.69;;;5.24;100.00
40650;BME280;26342;42.826;23.992;2023-10-19T04:21:40;95266.44;;;5.33;100.00
40650;BME280;26342;42.826;23.992;2023-10-19T04:24:09;95255.94;;;5.27;100.00
40650;BME280;26342;42.826;23.992;2023-10-19T04:26:38;95265.84;;;5.31;100.00
40650;BME280;26342;42.826;23.992;2023-10-19T04:29:05;95264.25;;;5.30;100.00
40650;BME280;26342;42.826;23.992;2023-10-19T04:31:37;95265.63;;;5.33;100.00
40650;BME280;26342;42.826;23.992;2023-10-19T04:34:14;95255.72;;;5.28;100.00
40650;BME280;26342;42.826;23.992;2023-10-19T04:36:39;95244.22;;;5.23;100.00
40650;BME280;26342;42.826;23.992;2023-10-19T04:39:05;95237.09;;;5.23;100.00
40650;BME280;26342;42.826;23.992;2023-10-19T04:41:30;95251.59;;;5.32;100.00
40650;BME280;26342;42.826;23.992;2023-10-19T04:43:56;95241.25;;;5.31;100.00
40650;BME280;26342;42.826;23.992;2023-10-19T04:46:23;95260.09;;;5.35;100.00
40650;BME280;26342;42.826;23.992;2023-10-19T04:48:49;95251.38;;;5.34;100.00
40650;BME280;26342;42.826;23.992;2023-10-19T04:51:15;95248.94;;;5.32;100.00
40650;BME280;26342;42.826;23.992;2023-10-19T04:53:42;95239.63;;;5.30;100.00
40650;BME280;26342;42.826;23.992;2023-10-19T04:56:08;95244.22;;;5.35;100.00
40650;BME280;26342;42.826;23.992;2023-10-19T04:58:34;95228.25;;;5.29;100.00
40650;BME280;26342;42.826;23.992;2023-10-19T05:01:00;95229.84;;;5.30;100.00
40650;BME280;26342;42.826;23.992;2023-10-19T05:03:29;95239.63;;;5.30;100.00
40650;BME280;26342;42.826;23.992;2023-10-19T05:05:54;95242.16;;;5.37;100.00
40650;BME280;26342;42.826;23.992;2023-10-19T05:08:22;95232.59;;;5.36;100.00
40650;BME280;26342;42.826;23.992;2023-10-19T05:10:51;95226.28;;;5.37;100.00
40650;BME280;26342;42.826;23.992;2023-10-19T05:13:17;95222.38;;;5.39;100.00
40650;BME280;26342;42.826;23.992;2023-10-19T05:15:43;95227.22;;;5.42;100.00
40650;BME280;26342;42.826;23.992;2023-10-19T05:18:08;95224.13;;;5.45;100.00
40650;BME280;26342;42.826;23.992;2023-10-19T05:20:34;95212.94;;;5.43;100.00
40650;BME280;26342;42.826;23.992;2023-10-19T05:22:59;95212.94;;;5.43;100.00
40650;BME280;26342;42.826;23.992;2023-10-19T05:25:25;95227.69;;;5.51;100.00
40650;BME280;26342;42.826;23.992;2023-10-19T05:27:51;95228.38;;;5.58;100.00
40650;BME280;26342;42.826;23.992;2023-10-19T05:30:16;95232.41;;;5.60;100.00
40650;BME280;26342;42.826;23.992;2023-10-19T05:32:42;95243.13;;;5.66;100.00
40650;BME280;26342;42.826;23.992;2023-10-19T05:35:07;95239.91;;;5.64;100.00
40650;BME280;26342;42.826;23.992;2023-10-19T05:37:33;95236.78;;;5.67;100.00
40650;BME280;26342;42.826;23.992;2023-10-19T05:39:59;95232.06;;;5.69;100.00
40650;BME280;26342;42.826;23.992;2023-10-19T05:42:24;95237.63;;;5.91;100.00
40650;BME280;26342;42.826;23.992;2023-10-19T05:44:50;95215.22;;;5.93;100.00
40650;BME280;26342;42.826;23.992;2023-10-19T05:47:17;95226.47;;;6.00;100.00
40650;BME280;26342;42.826;23.992;2023-10-19T05:49:42;95225.44;;;6.01;100.00
40650;BME280;26342;42.826;23.992;2023-10-19T05:52:08;95233.50;;;6.06;100.00
40650;BME280;26342;42.826;23.992;2023-10-19T05:54:33;95225.09;;;6.09;100.00
40650;BME280;26342;42.826;23.992;2023-10-19T05:56:58;95232.91;;;6.16;100.00
40650;BME280;26342;42.826;23.992;2023-10-19T05:59:24;95236.84;;;6.25;100.00
40650;BME280;26342;42.826;23.992;2023-10-19T06:01:52;95224.47;;;6.31;100.00
40650;BME280;26342;42.826;23.992;2023-10-19T06:04:17;95227.47;;;6.34;100.00
40650;BME280;26342;42.826;23.992;2023-10-19T06:06:42;95219.63;;;6.39;100.00
40650;BME280;26342;42.826;23.992;2023-10-19T06:09:08;95228.13;;;6.53;100.00
40650;BME280;26342;42.826;23.992;2023-10-19T06:11:36;95226.63;;;6.57;100.00
40650;BME280;26342;42.826;23.992;2023-10-19T06:14:08;95226.94;;;6.61;100.00
40650;BME280;26342;42.826;23.992;2023-10-19T06:16:33;95222.88;;;6.70;100.00
40650;BME280;26342;42.826;23.992;2023-10-19T06:19:00;95229.19;;;6.81;100.00
40650;BME280;26342;42.826;23.992;2023-10-19T06:21:25;95225.56;;;6.87;100.00
40650;BME280;26342;42.826;23.992;2023-10-19T06:23:51;95220.34;;;7.04;100.00
40650;BME280;26342;42.826;23.992;2023-10-19T06:26:18;95227.53;;;7.20;100.00
40650;BME280;26342;42.826;23.992;2023-10-19T06:28:43;95227.13;;;7.28;100.00
40650;BME280;26342;42.826;23.992;2023-10-19T06:31:08;95223.03;;;7.37;100.00
40650;BME280;26342;42.826;23.992;2023-10-19T06:33:34;95216.38;;;7.51;100.00
40650;BME280;26342;42.826;23.992;2023-10-19T06:36:01;95215.19;;;7.59;100.00
40650;BME280;26342;42.826;23.992;2023-10-19T06:38:31;95222.25;;;7.70;100.00
40650;BME280;26342;42.826;23.992;2023-10-19T06:40:56;95212.97;;;7.90;100.00
40650;BME280;26342;42.826;23.992;2023-10-19T06:43:22;95215.19;;;8.15;100.00
40650;BME280;26342;42.826;23.992;2023-10-19T06:45:53;95225.06;;;8.36;100.00
40650;BME280;26342;42.826;23.992;2023-10-19T06:48:20;95218.59;;;8.49;100.00
40650;BME280;26342;42.826;23.992;2023-10-19T06:50:46;95216.66;;;8.66;100.00
40650;BME280;26342;42.826;23.992;2023-10-19T06:53:11;95211.22;;;8.78;100.00
40650;BME280;26342;42.826;23.992;2023-10-19T06:55:37;95212.88;;;8.84;100.00
40650;BME280;26342;42.826;23.992;2023-10-19T06:58:02;95212.94;;;8.89;100.00
40650;BME280;26342;42.826;23.992;2023-10-19T07:00:28;95212.31;;;9.04;100.00
40650;BME280;26342;42.826;23.992;2023-10-19T07:02:55;95212.53;;;9.29;100.00
40650;BME280;26342;42.826;23.992;2023-10-19T07:05:21;95218.91;;;9.55;100.00
40650;BME280;26342;42.826;23.992;2023-10-19T07:07:49;95205.69;;;9.70;100.00
40650;BME280;26342;42.826;23.992;2023-10-19T07:10:17;95215.19;;;9.88;100.00
40650;BME280;26342;42.826;23.992;2023-10-19T07:12:48;95214.81;;;10.12;100.00
40650;BME280;26342;42.826;23.992;2023-10-19T07:15:14;95211.50;;;10.37;100.00
40650;BME280;26342;42.826;23.992;2023-10-19T07:17:41;95212.41;;;10.62;100.00
40650;BME280;26342;42.826;23.992;2023-10-19T07:20:08;95212.28;;;10.95;100.00
40650;BME280;26342;42.826;23.992;2023-10-19T07:22:42;95203.00;;;11.28;100.00
40650;BME280;26342;42.826;23.992;2023-10-19T07:25:08;95203.84;;;11.49;100.00
40650;BME280;26342;42.826;23.992;2023-10-19T07:27:34;95199.84;;;11.71;100.00
40650;BME280;26342;42.826;23.992;2023-10-19T07:30:03;95188.34;;;11.91;100.00
40650;BME280;26342;42.826;23.992;2023-10-19T07:32:34;95191.81;;;12.02;100.00
40650;BME280;26342;42.826;23.992;2023-10-19T07:35:00;95186.69;;;12.16;100.00
40650;BME280;26342;42.826;23.992;2023-10-19T07:37:25;95191.72;;;12.43;100.00
40650;BME280;26342;42.826;23.992;2023-10-19T07:39:50;95182.56;;;12.64;100.00
40650;BME280;26342;42.826;23.992;2023-10-19T07:42:23;95176.25;;;12.94;100.00
40650;BME280;26342;42.826;23.992;2023-10-19T07:44:48;95170.78;;;13.14;100.00
40650;BME280;26342;42.826;23.992;2023-10-19T07:47:14;95177.59;;;13.41;100.00
40650;BME280;26342;42.826;23.992;2023-10-19T07:49:40;95169.34;;;13.66;100.00
40650;BME280;26342;42.826;23.992;2023-10-19T07:52:05;95156.28;;;13.89;100.00
40650;BME280;26342;42.826;23.992;2023-10-19T07:54:37;95161.88;;;14.21;100.00
40650;BME280;26342;42.826;23.992;2023-10-19T07:57:03;95157.41;;;14.41;100.00
40650;BME280;26342;42.826;23.992;2023-10-19T07:59:34;95156.97;;;14.58;100.00
40650;BME280;26342;42.826;23.992;2023-10-19T08:02:02;95155.09;;;14.77;100.00
40650;BME280;26342;42.826;23.992;2023-10-19T08:04:29;95155.19;;;14.91;100.00
40650;BME280;26342;42.826;23.992;2023-10-19T08:06:55;95159.81;;;15.09;100.00
40650;BME280;26342;42.826;23.992;2023-10-19T08:09:21;95151.94;;;15.31;100.00
40650;BME280;26342;42.826;23.992;2023-10-19T08:11:51;95152.50;;;15.47;100.00
40650;BME280;26342;42.826;23.992;2023-10-19T08:14:22;95158.47;;;15.63;93.07
40650;BME280;26342;42.826;23.992;2023-10-19T08:16:50;95153.44;;;15.75;92.95
40650;BME280;26342;42.826;23.992;2023-10-19T08:19:16;95150.63;;;15.99;90.29
40650;BME280;26342;42.826;23.992;2023-10-19T08:21:41;95140.56;;;16.05;97.67
40650;BME280;26342;42.826;23.992;2023-10-19T08:24:06;95155.34;;;16.21;98.35
40650;BME280;26342;42.826;23.992;2023-10-19T08:26:34;95133.72;;;16.40;95.33
40650;BME280;26342;42.826;23.992;2023-10-19T08:29:01;95142.00;;;16.85;94.87
40650;BME280;26342;42.826;23.992;2023-10-19T08:31:26;95132.97;;;17.17;92.31
40650;BME280;26342;42.826;23.992;2023-10-19T08:33:51;95142.69;;;17.63;75.27
40650;BME280;26342;42.826;23.992;2023-10-19T08:36:20;95136.28;;;17.95;66.83
40650;BME280;26342;42.826;23.992;2023-10-19T08:38:46;95132.50;;;18.35;64.88
40650;BME280;26342;42.826;23.992;2023-10-19T08:41:13;95142.53;;;18.75;59.70
40650;BME280;26342;42.826;23.992;2023-10-19T08:43:40;95137.63;;;18.85;59.54
40650;BME280;26342;42.826;23.992;2023-10-19T08:46:06;95135.09;;;18.89;58.29
40650;BME280;26342;42.826;23.992;2023-10-19T08:48:35;95143.84;;;18.94;58.58
40650;BME280;26342;42.826;23.992;2023-10-19T08:51:08;95144.94;;;18.93;61.48
40650;BME280;26342;42.826;23.992;2023-10-19T08:53:37;95147.19;;;19.00;58.55
40650;BME280;26342;42.826;23.992;2023-10-19T08:56:06;95149.94;;;19.26;59.69
40650;BME280;26342;42.826;23.992;2023-10-19T08:58:32;95155.22;;;19.57;55.69
40650;BME280;26342;42.826;23.992;2023-10-19T09:00:58;95154.09;;;19.67;54.79
40650;BME280;26342;42.826;23.992;2023-10-19T09:03:31;95159.53;;;19.93;51.02
40650;BME280;26342;42.826;23.992;2023-10-19T09:06:01;95154.38;;;20.17;51.65
40650;BME280;26342;42.826;23.992;2023-10-19T09:08:27;95156.19;;;20.43;49.70
40650;BME280;26342;42.826;23.992;2023-10-19T09:11:06;95159.38;;;20.53;50.40
40650;BME280;26342;42.826;23.992;2023-10-19T09:13:46;95159.91;;;20.76;48.27
40650;BME280;26342;42.826;23.992;2023-10-19T09:16:19;95164.56;;;21.05;48.43
40650;BME280;26342;42.826;23.992;2023-10-19T09:18:46;95162.88;;;20.92;48.05
40650;BME280;26342;42.826;23.992;2023-10-19T09:21:16;95157.31;;;20.42;50.84
40650;BME280;26342;42.826;23.992;2023-10-19T09:23:59;95154.78;;;20.36;51.01
40650;BME280;26342;42.826;23.992;2023-10-19T09:26:25;95163.25;;;20.44;52.38
40650;BME280;26342;42.826;23.992;2023-10-19T09:28:51;95168.03;;;20.38;51.76
40650;BME280;26342;42.826;23.992;2023-10-19T09:31:18;95160.44;;;19.97;52.13
40650;BME280;26342;42.826;23.992;2023-10-19T09:33:46;95168.94;;;19.61;53.51
40650;BME280;26342;42.826;23.992;2023-10-19T09:36:13;95162.34;;;19.18;56.52
40650;BME280;26342;42.826;23.992;2023-10-19T09:41:15;95170.06;;;18.85;58.98
40650;BME280;26342;42.826;23.992;2023-10-19T09:43:45;95168.56;;;18.71;59.30
40650;BME280;26342;42.826;23.992;2023-10-19T09:46:12;95179.38;;;18.71;60.09
40650;BME280;26342;42.826;23.992;2023-10-19T09:48:42;95173.81;;;18.67;61.24
40650;BME280;26342;42.826;23.992;2023-10-19T09:51:08;95177.03;;;18.47;62.35
40650;BME280;26342;42.826;23.992;2023-10-19T09:53:34;95161.81;;;18.51;63.18
40650;BME280;26342;42.826;23.992;2023-10-19T09:56:03;95162.75;;;18.55;62.28
40650;BME280;26342;42.826;23.992;2023-10-19T09:58:36;95167.47;;;18.72;62.24
40650;BME280;26342;42.826;23.992;2023-10-19T10:01:03;95149.00;;;18.65;61.78
40650;BME280;26342;42.826;23.992;2023-10-19T10:03:49;95137.13;;;18.75;62.22
40650;BME280;26342;42.826;23.992;2023-10-19T10:09:18;95139.38;;;18.81;62.00
40650;BME280;26342;42.826;23.992;2023-10-19T10:11:48;95132.88;;;18.91;61.79
40650;BME280;26342;42.826;23.992;2023-10-19T10:14:23;95122.97;;;18.78;62.38
40650;BME280;26342;42.826;23.992;2023-10-19T10:17:01;95127.75;;;18.81;62.04
40650;BME280;26342;42.826;23.992;2023-10-19T10:19:27;95115.66;;;18.87;62.48
40650;BME280;26342;42.826;23.992;2023-10-19T10:22:09;95110.75;;;18.80;61.39
40650;BME280;26342;42.826;23.992;2023-10-19T10:24:43;95090.50;;;18.69;63.23
40650;BME280;26342;42.826;23.992;2023-10-19T10:27:09;95095.00;;;18.74;63.07
40650;BME280;26342;42.826;23.992;2023-10-19T10:29:35;95089.09;;;18.72;65.45
40650;BME280;26342;42.826;23.992;2023-10-19T10:32:01;95075.28;;;18.82;64.85
40650;BME280;26342;42.826;23.992;2023-10-19T10:37:03;95068.59;;;18.79;63.46
40650;BME280;26342;42.826;23.992;2023-10-19T10:39:30;95055.72;;;18.85;63.92
40650;BME280;26342;42.826;23.992;2023-10-19T10:41:57;95057.31;;;18.94;65.31
40650;BME280;26342;42.826;23.992;2023-10-19T10:47:17;95046.50;;;19.03;66.38
40650;BME280;26342;42.826;23.992;2023-10-19T10:54:51;95048.53;;;19.67;66.54
40650;BME280;26342;42.826;23.992;2023-10-19T10:57:17;95057.75;;;19.74;60.53
40650;BME280;26342;42.826;23.992;2023-10-19T10:59:43;95050.47;;;19.75;62.06
40650;BME280;26342;42.826;23.992;2023-10-19T11:02:18;95062.09;;;20.14;62.46
40650;BME280;26342;42.826;23.992;2023-10-19T11:04:44;95061.50;;;20.55;58.16
40650;BME280;26342;42.826;23.992;2023-10-19T11:07:19;95062.84;;;20.90;59.47
40650;BME280;26342;42.826;23.992;2023-10-19T11:09:48;95058.28;;;21.24;55.50
40650;BME280;26342;42.826;23.992;2023-10-19T11:12:14;95060.06;;;21.62;54.22
40650;BME280;26342;42.826;23.992;2023-10-19T11:14:54;95053.00;;;21.49;52.23
40650;BME280;26342;42.826;23.992;2023-10-19T11:17:20;95053.34;;;21.47;52.95
40650;BME280;26342;42.826;23.992;2023-10-19T11:19:49;95036.09;;;21.64;51.49
40650;BME280;26342;42.826;23.992;2023-10-19T11:22:15;95038.75;;;21.72;51.56
40650;BME280;26342;42.826;23.992;2023-10-19T11:24:40;95036.47;;;21.87;51.25
40650;BME280;26342;42.826;23.992;2023-10-19T11:27:06;95046.34;;;22.03;50.24
40650;BME280;26342;42.826;23.992;2023-10-19T11:29:33;95033.13;;;21.90;50.46
40650;BME280;26342;42.826;23.992;2023-10-19T11:32:01;95027.25;;;22.00;50.55
40650;BME280;26342;42.826;23.992;2023-10-19T11:34:28;95026.69;;;22.07;50.47
40650;BME280;26342;42.826;23.992;2023-10-19T11:36:56;95026.69;;;22.07;49.56
40650;BME280;26342;42.826;23.992;2023-10-19T11:39:23;95007.53;;;22.03;49.12
40650;BME280;26342;42.826;23.992;2023-10-19T11:41:51;95011.88;;;22.04;49.86
40650;BME280;26342;42.826;23.992;2023-10-19T11:44:18;94998.75;;;22.18;51.58
40650;BME280;26342;42.826;23.992;2023-10-19T11:46:44;94987.06;;;22.42;49.19
40650;BME280;26342;42.826;23.992;2023-10-19T11:49:10;94997.16;;;22.54;49.96
40650;BME280;26342;42.826;23.992;2023-10-19T11:51:37;95007.34;;;22.33;48.58
40650;BME280;26342;42.826;23.992;2023-10-19T11:54:04;95012.13;;;22.36;50.10
40650;BME280;26342;42.826;23.992;2023-10-19T11:56:31;95008.28;;;22.12;49.10
40650;BME280;26342;42.826;23.992;2023-10-19T11:58:57;95007.09;;;22.01;50.90
40650;BME280;26342;42.826;23.992;2023-10-19T12:01:22;95006.88;;;22.06;50.15
40650;BME280;26342;42.826;23.992;2023-10-19T12:03:50;95014.53;;;21.92;50.72
40650;BME280;26342;42.826;23.992;2023-10-19T12:06:16;95010.91;;;21.76;51.50
40650;BME280;26342;42.826;23.992;2023-10-19T12:08:46;95007.88;;;21.56;52.03
40650;BME280;26342;42.826;23.992;2023-10-19T12:11:12;95009.41;;;21.66;53.01
40650;BME280;26342;42.826;23.992;2023-10-19T12:13:47;95002.09;;;21.45;52.73
40650;BME280;26342;42.826;23.992;2023-10-19T12:16:13;94988.50;;;21.12;52.41
40650;BME280;26342;42.826;23.992;2023-10-19T12:18:44;95000.06;;;21.22;53.80
40650;BME280;26342;42.826;23.992;2023-10-19T12:21:10;94993.72;;;21.17;53.11
40650;BME280;26342;42.826;23.992;2023-10-19T12:23:44;94986.38;;;20.76;54.03
40650;BME280;26342;42.826;23.992;2023-10-19T12:26:10;94975.88;;;20.96;55.69
40650;BME280;26342;42.826;23.992;2023-10-19T12:28:40;94963.63;;;21.10;55.59
40650;BME280;26342;42.826;23.992;2023-10-19T12:31:07;94964.59;;;21.27;53.67
40650;BME280;26342;42.826;23.992;2023-10-19T12:33:39;94953.44;;;21.28;53.69
40650;BME280;26342;42.826;23.992;2023-10-19T12:36:07;94961.38;;;21.45;54.06
40650;BME280;26342;42.826;23.992;2023-10-19T12:38:51;94948.16;;;21.44;52.69
40650;BME280;26342;42.826;23.992;2023-10-19T12:41:18;94958.13;;;21.52;53.15
40650;BME280;26342;42.826;23.992;2023-10-19T12:43:44;94951.81;;;21.60;53.50
40650;BME280;26342;42.826;23.992;2023-10-19T12:46:11;94962.81;;;21.76;54.47
40650;BME280;26342;42.826;23.992;2023-10-19T12:48:39;94966.22;;;21.85;52.46
40650;BME280;26342;42.826;23.992;2023-10-19T12:51:04;94969.50;;;21.91;52.93
40650;BME280;26342;42.826;23.992;2023-10-19T12:53:34;94965.97;;;21.78;53.85
40650;BME280;26342;42.826;23.992;2023-10-19T12:56:00;94966.66;;;21.75;55.13
40650;BME280;26342;42.826;23.992;2023-10-19T13:00:53;94973.66;;;21.76;53.00
40650;BME280;26342;42.826;23.992;2023-10-19T13:03:20;94971.16;;;21.71;54.31
40650;BME280;26342;42.826;23.992;2023-10-19T13:05:47;94963.34;;;21.69;54.80
40650;BME280;26342;42.826;23.992;2023-10-19T13:08:15;94959.06;;;21.68;55.25
40650;BME280;26342;42.826;23.992;2023-10-19T13:10:45;94948.53;;;21.67;54.33
40650;BME280;26342;42.826;23.992;2023-10-19T13:13:14;94943.75;;;21.64;56.65
40650;BME280;26342;42.826;23.992;2023-10-19T13:15:42;94931.09;;;21.56;54.93
40650;BME280;26342;42.826;23.992;2023-10-19T13:18:09;94941.84;;;21.64;54.60